sensor_id;sensor_type;location;lat;lon;timestamp;P1;durP1;ratioP1;P2;durP2;ratioP2
9473;SDS011;8865;47.636;7.692;2023-04-25T00:01:39;7.20;;;3.60;;
9473;SDS011;8865;47.636;7.692;2023-04-25T00:04:06;5.57;;;3.03;;
9473;SDS011;8865;47.636;7.692;2023-04-25T00:06:33;3.97;;;2.90;;
9473;SDS011;8865;47.636;7.692;2023-04-25T00:09:02;6.17;;;4.13;;
9473;SDS011;8865;47.636;7.692;2023-04-25T00:11:34;6.90;;;3.83;;
9473;SDS011;8865;47.636;7.692;2023-04-25T00:14:00;5.67;;;3.13;;
9473;SDS011;8865;47.636;7.692;2023-04-25T00:16:28;5.57;;;2.90;;
9473;SDS011;8865;47.636;7.692;2023-04-25T00:18:55;5.30;;;2.80;;
9473;SDS011;8865;47.636;7.692;2023-04-25T00:21:21;3.97;;;3.00;;
9473;SDS011;8865;47.636;7.692;2023-04-25T00:23:47;4.90;;;2.97;;
9473;SDS011;8865;47.636;7.692;2023-04-25T00:26:13;3.23;;;2.60;;
9473;SDS011;8865;47.636;7.692;2023-04-25T00:28:39;4.33;;;2.60;;
9473;SDS011;8865;47.636;7.692;2023-04-25T00:31:06;5.33;;;3.43;;
9473;SDS011;8865;47.636;7.692;2023-04-25T00:33:32;3.67;;;2.97;;
9473;SDS011;8865;47.636;7.692;2023-04-25T00:35:58;3.93;;;3.07;;
9473;SDS011;8865;47.636;7.692;2023-04-25T00:38:24;4.00;;;3.17;;
9473;SDS011;8865;47.636;7.692;2023-04-25T00:40:50;4.37;;;2.57;;
9473;SDS011;8865;47.636;7.692;2023-04-25T00:43:16;5.37;;;2.47;;
9473;SDS011;8865;47.636;7.692;2023-04-25T00:45:42;3.97;;;2.47;;
9473;SDS011;8865;47.636;7.692;2023-04-25T00:48:08;4.20;;;2.67;;
9473;SDS011;8865;47.636;7.692;2023-04-25T00:50:35;3.40;;;2.90;;
9473;SDS011;8865;47.636;7.692;2023-04-25T00:53:02;5.20;;;3.17;;
9473;SDS011;8865;47.636;7.692;2023-04-25T00:55:29;4.07;;;2.90;;
9473;SDS011;8865;47.636;7.692;2023-04-25T00:57:57;4.00;;;2.60;;
9473;SDS011;8865;47.636;7.692;2023-04-25T01:00:23;3.67;;;2.80;;
9473;SDS011;8865;47.636;7.692;2023-04-25T01:02:49;4.07;;;2.70;;
9473;SDS011;8865;47.636;7.692;2023-04-25T01:05:16;10.03;;;3.87;;
9473;SDS011;8865;47.636;7.692;2023-04-25T01:07:42;4.57;;;3.30;;
9473;SDS011;8865;47.636;7.692;2023-04-25T01:10:08;7.03;;;3.50;;
9473;SDS011;8865;47.636;7.692;2023-04-25T01:12:34;4.30;;;2.90;;
9473;SDS011;8865;47.636;7.692;2023-04-25T01:15:01;5.03;;;3.23;;
9473;SDS011;8865;47.636;7.692;2023-04-25T01:17:27;5.17;;;3.30;;
9473;SDS011;8865;47.636;7.692;2023-04-25T01:19:54;5.37;;;3.30;;
9473;SDS011;8865;47.636;7.692;2023-04-25T01:22:20;4.33;;;3.30;;
9473;SDS011;8865;47.636;7.692;2023-04-25T01:24:46;5.90;;;3.13;;
9473;SDS011;8865;47.636;7.692;2023-04-25T01:27:13;4.07;;;3.20;;
9473;SDS011;8865;47.636;7.692;2023-04-25T01:29:39;3.90;;;3.17;;
9473;SDS011;8865;47.636;7.692;2023-04-25T01:32:05;7.47;;;3.17;;
9473;SDS011;8865;47.636;7.692;2023-04-25T01:34:31;4.77;;;3.23;;
9473;SDS011;8865;47.636;7.692;2023-04-25T01:36:59;6.20;;;3.53;;
9473;SDS011;8865;47.636;7.692;2023-04-25T01:39:27;5.03;;;3.10;;
9473;SDS011;8865;47.636;7.692;2023-04-25T01:41:53;5.03;;;2.90;;
9473;SDS011;8865;47.636;7.692;2023-04-25T01:44:19;3.83;;;2.70;;
9473;SDS011;8865;47.636;7.692;2023-04-25T01:46:45;4.33;;;2.93;;
9473;SDS011;8865;47.636;7.692;2023-04-25T01:49:11;4.60;;;3.13;;
9473;SDS011;8865;47.636;7.692;2023-04-25T01:51:37;4.90;;;3.10;;
9473;SDS011;8865;47.636;7.692;2023-04-25T01:54:04;4.93;;;2.97;;
9473;SDS011;8865;47.636;7.692;2023-04-25T01:56:31;5.23;;;2.70;;
9473;SDS011;8865;47.636;7.692;2023-04-25T01:58:57;4.10;;;2.83;;
9473;SDS011;8865;47.636;7.692;2023-04-25T02:01:23;4.83;;;2.90;;
9473;SDS011;8865;47.636;7.692;2023-04-25T02:03:49;3.80;;;2.70;;
9473;SDS011;8865;47.636;7.692;2023-04-25T02:06:15;6.03;;;2.90;;
9473;SDS011;8865;47.636;7.692;2023-04-25T02:08:41;4.03;;;2.70;;
9473;SDS011;8865;47.636;7.692;2023-04-25T02:11:07;4.67;;;3.30;;
9473;SDS011;8865;47.636;7.692;2023-04-25T02:13:33;6.23;;;3.07;;
9473;SDS011;8865;47.636;7.692;2023-04-25T02:15:59;3.07;;;2.53;;
9473;SDS011;8865;47.636;7.692;2023-04-25T02:18:25;4.63;;;3.10;;
9473;SDS011;8865;47.636;7.692;2023-04-25T02:20:51;8.17;;;2.90;;
9473;SDS011;8865;47.636;7.692;2023-04-25T02:23:18;4.33;;;3.03;;
9473;SDS011;8865;47.636;7.692;2023-04-25T02:25:44;5.23;;;3.20;;
9473;SDS011;8865;47.636;7.692;2023-04-25T02:28:11;4.43;;;3.37;;
9473;SDS011;8865;47.636;7.692;2023-04-25T02:30:37;5.90;;;3.30;;
9473;SDS011;8865;47.636;7.692;2023-04-25T02:33:03;4.23;;;2.87;;
9473;SDS011;8865;47.636;7.692;2023-04-25T02:35:29;4.83;;;3.27;;
9473;SDS011;8865;47.636;7.692;2023-04-25T02:37:55;5.17;;;2.70;;
9473;SDS011;8865;47.636;7.692;2023-04-25T02:40:21;3.93;;;3.10;;
9473;SDS011;8865;47.636;7.692;2023-04-25T02:42:47;3.57;;;3.17;;
9473;SDS011;8865;47.636;7.692;2023-04-25T02:45:13;7.13;;;3.27;;
9473;SDS011;8865;47.636;7.692;2023-04-25T02:47:40;5.17;;;3.13;;
9473;SDS011;8865;47.636;7.692;2023-04-25T02:50:06;5.67;;;3.23;;
9473;SDS011;8865;47.636;7.692;2023-04-25T02:52:32;4.33;;;3.10;;
9473;SDS011;8865;47.636;7.692;2023-04-25T02:54:58;4.67;;;3.17;;
9473;SDS011;8865;47.636;7.692;2023-04-25T02:57:24;6.80;;;3.37;;
9473;SDS011;8865;47.636;7.692;2023-04-25T02:59:50;3.23;;;2.93;;
9473;SDS011;8865;47.636;7.692;2023-04-25T03:02:16;4.13;;;3.30;;
9473;SDS011;8865;47.636;7.692;2023-04-25T03:04:42;4.13;;;3.00;;
9473;SDS011;8865;47.636;7.692;2023-04-25T03:07:08;7.60;;;3.17;;
9473;SDS011;8865;47.636;7.692;2023-04-25T03:09:34;3.83;;;2.93;;
9473;SDS011;8865;47.636;7.692;2023-04-25T03:12:01;7.40;;;3.57;;
9473;SDS011;8865;47.636;7.692;2023-04-25T03:14:27;5.23;;;3.20;;
9473;SDS011;8865;47.636;7.692;2023-04-25T03:16:53;5.53;;;3.40;;
9473;SDS011;8865;47.636;7.692;2023-04-25T03:19:19;5.77;;;3.10;;
9473;SDS011;8865;47.636;7.692;2023-04-25T03:21:45;5.20;;;3.40;;
9473;SDS011;8865;47.636;7.692;2023-04-25T03:24:11;5.57;;;3.27;;
9473;SDS011;8865;47.636;7.692;2023-04-25T03:26:37;4.23;;;3.17;;
9473;SDS011;8865;47.636;7.692;2023-04-25T03:29:03;4.43;;;3.03;;
9473;SDS011;8865;47.636;7.692;2023-04-25T03:31:30;4.87;;;3.63;;
9473;SDS011;8865;47.636;7.692;2023-04-25T03:33:56;5.20;;;3.57;;
9473;SDS011;8865;47.636;7.692;2023-04-25T03:36:22;5.57;;;3.63;;
9473;SDS011;8865;47.636;7.692;2023-04-25T03:38:48;4.40;;;3.40;;
9473;SDS011;8865;47.636;7.692;2023-04-25T03:41:14;5.00;;;3.40;;
9473;SDS011;8865;47.636;7.692;2023-04-25T03:43:40;7.00;;;3.83;;
9473;SDS011;8865;47.636;7.692;2023-04-25T03:46:06;5.37;;;3.67;;
9473;SDS011;8865;47.636;7.692;2023-04-25T03:48:32;5.90;;;3.53;;
9473;SDS011;8865;47.636;7.692;2023-04-25T03:50:58;5.63;;;3.57;;
9473;SDS011;8865;47.636;7.692;2023-04-25T03:53:24;5.20;;;3.17;;
9473;SDS011;8865;47.636;7.692;2023-04-25T03:55:50;6.10;;;3.70;;
9473;SDS011;8865;47.636;7.692;2023-04-25T03:58:16;4.87;;;3.43;;
9473;SDS011;8865;47.636;7.692;2023-04-25T04:00:42;5.30;;;3.20;;
9473;SDS011;8865;47.636;7.692;2023-04-25T04:03:08;4.67;;;3.63;;
9473;SDS011;8865;47.636;7.692;2023-04-25T04:05:34;8.20;;;3.30;;
9473;SDS011;8865;47.636;7.692;2023-04-25T04:08:00;5.63;;;3.13;;
9473;SDS011;8865;47.636;7.692;2023-04-25T04:10:26;6.63;;;3.83;;
9473;SDS011;8865;47.636;7.692;2023-04-25T04:12:52;4.27;;;3.10;;
9473;SDS011;8865;47.636;7.692;2023-04-25T04:15:18;4.10;;;3.57;;
9473;SDS011;8865;47.636;7.692;2023-04-25T04:17:44;6.17;;;3.83;;
9473;SDS011;8865;47.636;7.692;2023-04-25T04:20:10;6.33;;;3.50;;
9473;SDS011;8865;47.636;7.692;2023-04-25T04:22:36;6.57;;;3.33;;
9473;SDS011;8865;47.636;7.692;2023-04-25T04:25:03;4.50;;;3.43;;
9473;SDS011;8865;47.636;7.692;2023-04-25T04:27:31;4.43;;;3.47;;
9473;SDS011;8865;47.636;7.692;2023-04-25T04:29:57;5.40;;;3.57;;
9473;SDS011;8865;47.636;7.692;2023-04-25T04:32:23;4.97;;;3.27;;
9473;SDS011;8865;47.636;7.692;2023-04-25T04:34:51;6.13;;;3.33;;
9473;SDS011;8865;47.636;7.692;2023-04-25T04:37:17;5.13;;;3.30;;
9473;SDS011;8865;47.636;7.692;2023-04-25T04:39:44;5.63;;;3.60;;
9473;SDS011;8865;47.636;7.692;2023-04-25T04:42:10;6.20;;;3.60;;
9473;SDS011;8865;47.636;7.692;2023-04-25T04:44:37;4.90;;;3.37;;
9473;SDS011;8865;47.636;7.692;2023-04-25T04:47:04;7.30;;;3.80;;
9473;SDS011;8865;47.636;7.692;2023-04-25T04:49:32;6.20;;;3.73;;
9473;SDS011;8865;47.636;7.692;2023-04-25T04:51:59;7.60;;;4.30;;
9473;SDS011;8865;47.636;7.692;2023-04-25T04:54:26;5.47;;;3.77;;
9473;SDS011;8865;47.636;7.692;2023-04-25T04:56:52;12.20;;;8.77;;
9473;SDS011;8865;47.636;7.692;2023-04-25T04:59:18;7.60;;;3.83;;
9473;SDS011;8865;47.636;7.692;2023-04-25T05:01:44;4.53;;;3.30;;
9473;SDS011;8865;47.636;7.692;2023-04-25T05:04:12;5.50;;;3.03;;
9473;SDS011;8865;47.636;7.692;2023-04-25T05:06:38;3.40;;;2.50;;
9473;SDS011;8865;47.636;7.692;2023-04-25T05:09:04;4.20;;;2.70;;
9473;SDS011;8865;47.636;7.692;2023-04-25T05:11:30;5.67;;;2.80;;
9473;SDS011;8865;47.636;7.692;2023-04-25T05:13:56;4.47;;;2.80;;
9473;SDS011;8865;47.636;7.692;2023-04-25T05:16:22;5.00;;;2.77;;
9473;SDS011;8865;47.636;7.692;2023-04-25T05:18:48;4.53;;;3.07;;
9473;SDS011;8865;47.636;7.692;2023-04-25T05:21:14;3.37;;;2.50;;
9473;SDS011;8865;47.636;7.692;2023-04-25T05:23:40;4.30;;;2.43;;
9473;SDS011;8865;47.636;7.692;2023-04-25T05:26:06;3.37;;;2.60;;
9473;SDS011;8865;47.636;7.692;2023-04-25T05:28:41;3.27;;;2.60;;
9473;SDS011;8865;47.636;7.692;2023-04-25T05:31:09;3.73;;;2.50;;
9473;SDS011;8865;47.636;7.692;2023-04-25T05:33:35;4.73;;;3.00;;
9473;SDS011;8865;47.636;7.692;2023-04-25T05:36:01;4.20;;;2.60;;
9473;SDS011;8865;47.636;7.692;2023-04-25T05:38:27;4.10;;;2.93;;
9473;SDS011;8865;47.636;7.692;2023-04-25T05:40:53;6.97;;;5.30;;
9473;SDS011;8865;47.636;7.692;2023-04-25T05:43:19;4.50;;;3.13;;
9473;SDS011;8865;47.636;7.692;2023-04-25T05:45:45;4.23;;;3.20;;
9473;SDS011;8865;47.636;7.692;2023-04-25T05:48:12;3.80;;;3.10;;
9473;SDS011;8865;47.636;7.692;2023-04-25T05:50:38;3.60;;;2.87;;
9473;SDS011;8865;47.636;7.692;2023-04-25T05:53:04;4.67;;;2.93;;
9473;SDS011;8865;47.636;7.692;2023-04-25T05:55:31;3.63;;;2.83;;
9473;SDS011;8865;47.636;7.692;2023-04-25T05:57:57;3.73;;;2.80;;
9473;SDS011;8865;47.636;7.692;2023-04-25T06:00:23;3.47;;;2.40;;
9473;SDS011;8865;47.636;7.692;2023-04-25T06:02:49;4.43;;;3.03;;
9473;SDS011;8865;47.636;7.692;2023-04-25T06:05:15;5.37;;;3.30;;
9473;SDS011;8865;47.636;7.692;2023-04-25T06:07:41;3.00;;;2.70;;
9473;SDS011;8865;47.636;7.692;2023-04-25T06:10:07;3.67;;;3.20;;
9473;SDS011;8865;47.636;7.692;2023-04-25T06:12:33;5.07;;;4.00;;
9473;SDS011;8865;47.636;7.692;2023-04-25T06:15:00;5.70;;;3.70;;
9473;SDS011;8865;47.636;7.692;2023-04-25T06:17:26;5.10;;;3.60;;
9473;SDS011;8865;47.636;7.692;2023-04-25T06:19:52;4.07;;;3.30;;
9473;SDS011;8865;47.636;7.692;2023-04-25T06:22:18;4.30;;;2.90;;
9473;SDS011;8865;47.636;7.692;2023-04-25T06:24:44;3.10;;;2.80;;
9473;SDS011;8865;47.636;7.692;2023-04-25T06:27:11;4.20;;;3.10;;
9473;SDS011;8865;47.636;7.692;2023-04-25T06:29:37;5.47;;;3.30;;
9473;SDS011;8865;47.636;7.692;2023-04-25T06:32:03;4.33;;;3.27;;
9473;SDS011;8865;47.636;7.692;2023-04-25T06:34:30;3.57;;;3.00;;
9473;SDS011;8865;47.636;7.692;2023-04-25T06:36:56;3.10;;;2.80;;
9473;SDS011;8865;47.636;7.692;2023-04-25T06:39:22;4.40;;;2.97;;
9473;SDS011;8865;47.636;7.692;2023-04-25T06:41:50;5.80;;;3.50;;
9473;SDS011;8865;47.636;7.692;2023-04-25T06:44:16;7.40;;;4.10;;
9473;SDS011;8865;47.636;7.692;2023-04-25T06:46:42;6.23;;;3.50;;
9473;SDS011;8865;47.636;7.692;2023-04-25T06:49:08;6.27;;;3.90;;
9473;SDS011;8865;47.636;7.692;2023-04-25T06:51:34;5.27;;;3.17;;
9473;SDS011;8865;47.636;7.692;2023-04-25T06:54:00;4.40;;;2.67;;
9473;SDS011;8865;47.636;7.692;2023-04-25T06:56:27;4.50;;;3.00;;
9473;SDS011;8865;47.636;7.692;2023-04-25T06:58:55;4.20;;;2.90;;
9473;SDS011;8865;47.636;7.692;2023-04-25T07:01:21;4.90;;;3.00;;
9473;SDS011;8865;47.636;7.692;2023-04-25T07:03:47;3.17;;;2.73;;
9473;SDS011;8865;47.636;7.692;2023-04-25T07:06:12;3.90;;;3.13;;
9473;SDS011;8865;47.636;7.692;2023-04-25T07:08:39;3.07;;;2.77;;
9473;SDS011;8865;47.636;7.692;2023-04-25T07:11:05;5.43;;;3.07;;
9473;SDS011;8865;47.636;7.692;2023-04-25T07:13:31;3.83;;;2.40;;
9473;SDS011;8865;47.636;7.692;2023-04-25T07:15:57;3.93;;;2.90;;
9473;SDS011;8865;47.636;7.692;2023-04-25T07:18:23;8.63;;;2.70;;
9473;SDS011;8865;47.636;7.692;2023-04-25T07:20:49;3.47;;;2.67;;
9473;SDS011;8865;47.636;7.692;2023-04-25T07:23:15;3.73;;;3.00;;
9473;SDS011;8865;47.636;7.692;2023-04-25T07:25:41;3.97;;;2.80;;
9473;SDS011;8865;47.636;7.692;2023-04-25T07:28:07;5.10;;;2.87;;
9473;SDS011;8865;47.636;7.692;2023-04-25T07:30:33;2.83;;;2.53;;
9473;SDS011;8865;47.636;7.692;2023-04-25T07:33:00;5.90;;;3.10;;
9473;SDS011;8865;47.636;7.692;2023-04-25T07:35:26;3.70;;;2.33;;
9473;SDS011;8865;47.636;7.692;2023-04-25T07:37:52;2.40;;;2.00;;
9473;SDS011;8865;47.636;7.692;2023-04-25T07:40:18;4.20;;;2.40;;
9473;SDS011;8865;47.636;7.692;2023-04-25T07:42:44;3.20;;;2.00;;
9473;SDS011;8865;47.636;7.692;2023-04-25T07:45:10;4.50;;;1.80;;
9473;SDS011;8865;47.636;7.692;2023-04-25T07:47:36;4.47;;;2.47;;
9473;SDS011;8865;47.636;7.692;2023-04-25T07:50:04;3.00;;;2.40;;
9473;SDS011;8865;47.636;7.692;2023-04-25T07:52:30;2.97;;;2.47;;
9473;SDS011;8865;47.636;7.692;2023-04-25T07:54:56;2.63;;;2.00;;
9473;SDS011;8865;47.636;7.692;2023-04-25T07:57:24;3.50;;;2.57;;
9473;SDS011;8865;47.636;7.692;2023-04-25T07:59:50;3.27;;;2.20;;
9473;SDS011;8865;47.636;7.692;2023-04-25T08:02:16;2.83;;;2.00;;
9473;SDS011;8865;47.636;7.692;2023-04-25T08:04:42;2.20;;;2.00;;
9473;SDS011;8865;47.636;7.692;2023-04-25T08:07:08;3.60;;;2.93;;
9473;SDS011;8865;47.636;7.692;2023-04-25T08:09:35;3.17;;;2.50;;
9473;SDS011;8865;47.636;7.692;2023-04-25T08:12:02;2.93;;;2.17;;
9473;SDS011;8865;47.636;7.692;2023-04-25T08:14:29;4.53;;;2.57;;
9473;SDS011;8865;47.636;7.692;2023-04-25T08:17:03;2.30;;;2.10;;
9473;SDS011;8865;47.636;7.692;2023-04-25T08:19:30;1.70;;;1.60;;
9473;SDS011;8865;47.636;7.692;2023-04-25T08:21:56;1.87;;;1.77;;
9473;SDS011;8865;47.636;7.692;2023-04-25T08:24:23;2.37;;;1.90;;
9473;SDS011;8865;47.636;7.692;2023-04-25T08:26:49;3.27;;;2.00;;
9473;SDS011;8865;47.636;7.692;2023-04-25T08:29:15;2.53;;;2.27;;
9473;SDS011;8865;47.636;7.692;2023-04-25T08:31:41;3.70;;;2.20;;
9473;SDS011;8865;47.636;7.692;2023-04-25T08:34:07;2.10;;;1.90;;
9473;SDS011;8865;47.636;7.692;2023-04-25T08:36:33;2.10;;;1.90;;
9473;SDS011;8865;47.636;7.692;2023-04-25T08:38:59;2.40;;;1.97;;
9473;SDS011;8865;47.636;7.692;2023-04-25T08:41:25;2.40;;;2.00;;
9473;SDS011;8865;47.636;7.692;2023-04-25T08:43:52;2.13;;;1.60;;
9473;SDS011;8865;47.636;7.692;2023-04-25T08:46:19;2.00;;;1.80;;
9473;SDS011;8865;47.636;7.692;2023-04-25T08:48:45;3.40;;;1.70;;
9473;SDS011;8865;47.636;7.692;2023-04-25T08:51:15;1.90;;;1.70;;
9473;SDS011;8865;47.636;7.692;2023-04-25T08:53:46;2.60;;;1.40;;
9473;SDS011;8865;47.636;7.692;2023-04-25T08:56:16;1.70;;;1.57;;
9473;SDS011;8865;47.636;7.692;2023-04-25T08:58:49;1.63;;;1.53;;
9473;SDS011;8865;47.636;7.692;2023-04-25T09:01:18;1.63;;;1.37;;
9473;SDS011;8865;47.636;7.692;2023-04-25T09:03:44;2.57;;;1.60;;
9473;SDS011;8865;47.636;7.692;2023-04-25T09:06:10;2.63;;;1.50;;
9473;SDS011;8865;47.636;7.692;2023-04-25T09:08:37;2.27;;;1.30;;
9473;SDS011;8865;47.636;7.692;2023-04-25T09:11:03;1.60;;;1.50;;
9473;SDS011;8865;47.636;7.692;2023-04-25T09:13:29;2.87;;;1.80;;
9473;SDS011;8865;47.636;7.692;2023-04-25T09:15:56;1.80;;;1.37;;
9473;SDS011;8865;47.636;7.692;2023-04-25T09:18:30;1.50;;;1.30;;
9473;SDS011;8865;47.636;7.692;2023-04-25T09:21:10;1.87;;;1.30;;
9473;SDS011;8865;47.636;7.692;2023-04-25T09:23:47;1.40;;;1.30;;
9473;SDS011;8865;47.636;7.692;2023-04-25T09:26:14;1.50;;;1.30;;
9473;SDS011;8865;47.636;7.692;2023-04-25T09:28:42;1.30;;;1.20;;
9473;SDS011;8865;47.636;7.692;2023-04-25T09:31:11;1.93;;;1.50;;
9473;SDS011;8865;47.636;7.692;2023-04-25T09:33:37;1.13;;;1.10;;
9473;SDS011;8865;47.636;7.692;2023-04-25T09:36:07;1.50;;;1.30;;
9473;SDS011;8865;47.636;7.692;2023-04-25T09:38:40;1.17;;;1.10;;
9473;SDS011;8865;47.636;7.692;2023-04-25T09:41:07;2.17;;;1.30;;
9473;SDS011;8865;47.636;7.692;2023-04-25T09:43:35;1.70;;;1.20;;
9473;SDS011;8865;47.636;7.692;2023-04-25T09:46:01;2.07;;;1.10;;
9473;SDS011;8865;47.636;7.692;2023-04-25T09:48:27;1.20;;;1.10;;
9473;SDS011;8865;47.636;7.692;2023-04-25T09:51:04;1.47;;;1.33;;
9473;SDS011;8865;47.636;7.692;2023-04-25T09:53:32;2.43;;;1.40;;
9473;SDS011;8865;47.636;7.692;2023-04-25T09:56:05;1.70;;;1.60;;
9473;SDS011;8865;47.636;7.692;2023-04-25T09:58:33;1.37;;;1.23;;
9473;SDS011;8865;47.636;7.692;2023-04-25T10:01:01;1.20;;;1.10;;
9473;SDS011;8865;47.636;7.692;2023-04-25T10:03:36;1.90;;;1.03;;
9473;SDS011;8865;47.636;7.692;2023-04-25T10:06:09;1.70;;;1.17;;
9473;SDS011;8865;47.636;7.692;2023-04-25T10:08:39;2.13;;;1.30;;
9473;SDS011;8865;47.636;7.692;2023-04-25T10:11:08;1.73;;;1.10;;
9473;SDS011;8865;47.636;7.692;2023-04-25T10:13:34;1.53;;;1.33;;
9473;SDS011;8865;47.636;7.692;2023-04-25T10:16:03;1.80;;;1.20;;
9473;SDS011;8865;47.636;7.692;2023-04-25T10:18:30;1.20;;;1.10;;
9473;SDS011;8865;47.636;7.692;2023-04-25T10:21:00;1.17;;;1.00;;
9473;SDS011;8865;47.636;7.692;2023-04-25T10:23:29;1.50;;;1.10;;
9473;SDS011;8865;47.636;7.692;2023-04-25T10:25:56;1.17;;;1.07;;
9473;SDS011;8865;47.636;7.692;2023-04-25T10:28:24;1.57;;;1.30;;
9473;SDS011;8865;47.636;7.692;2023-04-25T10:31:03;1.37;;;1.27;;
9473;SDS011;8865;47.636;7.692;2023-04-25T10:33:35;1.50;;;1.30;;
9473;SDS011;8865;47.636;7.692;2023-04-25T10:36:11;2.53;;;1.40;;
9473;SDS011;8865;47.636;7.692;2023-04-25T10:38:48;2.60;;;1.50;;
9473;SDS011;8865;47.636;7.692;2023-04-25T10:41:19;3.07;;;1.13;;
9473;SDS011;8865;47.636;7.692;2023-04-25T10:43:46;1.67;;;1.33;;
9473;SDS011;8865;47.636;7.692;2023-04-25T10:46:23;2.57;;;1.30;;
9473;SDS011;8865;47.636;7.692;2023-04-25T10:48:50;1.23;;;1.10;;
9473;SDS011;8865;47.636;7.692;2023-04-25T10:51:17;2.13;;;1.23;;
9473;SDS011;8865;47.636;7.692;2023-04-25T10:53:44;1.63;;;1.20;;
9473;SDS011;8865;47.636;7.692;2023-04-25T10:56:18;2.00;;;1.03;;
9473;SDS011;8865;47.636;7.692;2023-04-25T10:58:46;3.33;;;1.50;;
9473;SDS011;8865;47.636;7.692;2023-04-25T11:01:13;1.70;;;1.40;;
9473;SDS011;8865;47.636;7.692;2023-04-25T11:03:41;1.33;;;1.20;;
9473;SDS011;8865;47.636;7.692;2023-04-25T11:06:12;1.25;;;1.00;;
9473;SDS011;8865;47.636;7.692;2023-04-25T11:08:49;1.27;;;1.17;;
9473;SDS011;8865;47.636;7.692;2023-04-25T11:11:17;1.98;;;1.00;;
9473;SDS011;8865;47.636;7.692;2023-04-25T11:13:44;1.25;;;1.15;;
9473;SDS011;8865;47.636;7.692;2023-04-25T11:16:14;2.70;;;1.30;;
9473;SDS011;8865;47.636;7.692;2023-04-25T11:18:43;1.85;;;1.08;;
9473;SDS011;8865;47.636;7.692;2023-04-25T11:21:10;1.13;;;1.00;;
9473;SDS011;8865;47.636;7.692;2023-04-25T11:23:37;1.65;;;1.00;;
9473;SDS011;8865;47.636;7.692;2023-04-25T11:26:03;1.95;;;1.30;;
9473;SDS011;8865;47.636;7.692;2023-04-25T11:28:29;1.13;;;0.95;;
9473;SDS011;8865;47.636;7.692;2023-04-25T11:30:56;2.28;;;1.25;;
9473;SDS011;8865;47.636;7.692;2023-04-25T11:33:25;1.48;;;0.93;;
9473;SDS011;8865;47.636;7.692;2023-04-25T11:35:53;2.55;;;1.15;;
9473;SDS011;8865;47.636;7.692;2023-04-25T11:38:21;1.85;;;1.10;;
9473;SDS011;8865;47.636;7.692;2023-04-25T11:40:54;1.60;;;1.30;;
9473;SDS011;8865;47.636;7.692;2023-04-25T11:43:21;1.57;;;1.10;;
9473;SDS011;8865;47.636;7.692;2023-04-25T11:45:48;2.13;;;1.30;;
9473;SDS011;8865;47.636;7.692;2023-04-25T11:48:16;2.53;;;1.40;;
9473;SDS011;8865;47.636;7.692;2023-04-25T11:50:43;2.57;;;1.40;;
9473;SDS011;8865;47.636;7.692;2023-04-25T11:53:09;3.87;;;1.50;;
9473;SDS011;8865;47.636;7.692;2023-04-25T11:55:36;1.57;;;1.20;;
9473;SDS011;8865;47.636;7.692;2023-04-25T11:58:03;1.43;;;1.33;;
9473;SDS011;8865;47.636;7.692;2023-04-25T12:00:30;2.17;;;1.43;;
9473;SDS011;8865;47.636;7.692;2023-04-25T12:02:57;2.17;;;1.40;;
9473;SDS011;8865;47.636;7.692;2023-04-25T12:05:25;1.50;;;1.40;;
9473;SDS011;8865;47.636;7.692;2023-04-25T12:07:53;1.70;;;1.40;;
9473;SDS011;8865;47.636;7.692;2023-04-25T12:10:20;1.63;;;1.30;;
9473;SDS011;8865;47.636;7.692;2023-04-25T12:12:46;1.90;;;1.50;;
9473;SDS011;8865;47.636;7.692;2023-04-25T12:15:23;1.30;;;1.20;;
9473;SDS011;8865;47.636;7.692;2023-04-25T12:17:51;1.23;;;0.93;;
9473;SDS011;8865;47.636;7.692;2023-04-25T12:20:19;1.47;;;1.00;;
9473;SDS011;8865;47.636;7.692;2023-04-25T12:22:47;1.50;;;1.20;;
9473;SDS011;8865;47.636;7.692;2023-04-25T12:30:57;2.17;;;1.13;;
9473;SDS011;8865;47.636;7.692;2023-04-25T12:33:32;1.10;;;1.00;;
9473;SDS011;8865;47.636;7.692;2023-04-25T12:36:00;1.77;;;1.07;;
9473;SDS011;8865;47.636;7.692;2023-04-25T12:38:35;1.97;;;1.00;;
9473;SDS011;8865;47.636;7.692;2023-04-25T12:41:05;1.33;;;0.80;;
9473;SDS011;8865;47.636;7.692;2023-04-25T12:43:32;2.40;;;1.00;;
9473;SDS011;8865;47.636;7.692;2023-04-25T12:45:58;1.73;;;0.80;;
9473;SDS011;8865;47.636;7.692;2023-04-25T12:48:24;2.50;;;1.00;;
9473;SDS011;8865;47.636;7.692;2023-04-25T12:50:50;1.20;;;0.90;;
9473;SDS011;8865;47.636;7.692;2023-04-25T12:53:17;0.90;;;0.73;;
9473;SDS011;8865;47.636;7.692;2023-04-25T12:55:45;1.67;;;0.90;;
9473;SDS011;8865;47.636;7.692;2023-04-25T12:58:15;1.13;;;0.80;;
9473;SDS011;8865;47.636;7.692;2023-04-25T13:00:43;0.63;;;0.60;;
9473;SDS011;8865;47.636;7.692;2023-04-25T13:03:09;0.77;;;0.70;;
9473;SDS011;8865;47.636;7.692;2023-04-25T13:05:36;0.90;;;0.60;;
9473;SDS011;8865;47.636;7.692;2023-04-25T13:08:03;0.87;;;0.80;;
9473;SDS011;8865;47.636;7.692;2023-04-25T13:10:30;0.70;;;0.67;;
9473;SDS011;8865;47.636;7.692;2023-04-25T13:12:56;1.30;;;0.93;;
9473;SDS011;8865;47.636;7.692;2023-04-25T13:15:22;2.80;;;0.80;;
9473;SDS011;8865;47.636;7.692;2023-04-25T13:17:48;1.00;;;0.80;;
9473;SDS011;8865;47.636;7.692;2023-04-25T13:20:15;1.57;;;0.67;;
9473;SDS011;8865;47.636;7.692;2023-04-25T13:22:41;1.03;;;0.90;;
9473;SDS011;8865;47.636;7.692;2023-04-25T13:25:08;0.80;;;0.80;;
9473;SDS011;8865;47.636;7.692;2023-04-25T13:27:35;2.10;;;1.17;;
9473;SDS011;8865;47.636;7.692;2023-04-25T13:30:03;3.60;;;1.20;;
9473;SDS011;8865;47.636;7.692;2023-04-25T13:32:35;1.30;;;0.90;;
9473;SDS011;8865;47.636;7.692;2023-04-25T13:35:03;2.17;;;1.20;;
9473;SDS011;8865;47.636;7.692;2023-04-25T13:37:30;3.87;;;1.20;;
9473;SDS011;8865;47.636;7.692;2023-04-25T13:40:04;1.63;;;1.20;;
9473;SDS011;8865;47.636;7.692;2023-04-25T13:42:34;1.10;;;0.97;;
9473;SDS011;8865;47.636;7.692;2023-04-25T13:45:00;1.07;;;1.07;;
9473;SDS011;8865;47.636;7.692;2023-04-25T13:47:27;1.63;;;1.10;;
9473;SDS011;8865;47.636;7.692;2023-04-25T13:49:53;1.37;;;1.20;;
9473;SDS011;8865;47.636;7.692;2023-04-25T13:52:20;2.47;;;1.00;;
9473;SDS011;8865;47.636;7.692;2023-04-25T13:54:46;0.93;;;0.93;;
9473;SDS011;8865;47.636;7.692;2023-04-25T13:57:12;1.63;;;0.90;;
9473;SDS011;8865;47.636;7.692;2023-04-25T13:59:38;1.00;;;0.87;;
9473;SDS011;8865;47.636;7.692;2023-04-25T14:02:06;3.33;;;1.00;;
9473;SDS011;8865;47.636;7.692;2023-04-25T14:04:33;0.90;;;0.70;;
9473;SDS011;8865;47.636;7.692;2023-04-25T14:06:59;2.67;;;0.70;;
9473;SDS011;8865;47.636;7.692;2023-04-25T14:09:25;0.60;;;0.60;;
9473;SDS011;8865;47.636;7.692;2023-04-25T14:11:52;1.00;;;0.60;;
9473;SDS011;8865;47.636;7.692;2023-04-25T14:14:19;1.40;;;0.90;;
9473;SDS011;8865;47.636;7.692;2023-04-25T14:16:46;1.07;;;0.60;;
9473;SDS011;8865;47.636;7.692;2023-04-25T14:19:17;1.10;;;0.80;;
9473;SDS011;8865;47.636;7.692;2023-04-25T14:21:43;1.03;;;0.93;;
9473;SDS011;8865;47.636;7.692;2023-04-25T14:24:09;1.73;;;0.97;;
9473;SDS011;8865;47.636;7.692;2023-04-25T14:26:39;1.23;;;1.00;;
9473;SDS011;8865;47.636;7.692;2023-04-25T14:29:05;1.63;;;0.90;;
9473;SDS011;8865;47.636;7.692;2023-04-25T14:31:32;2.47;;;1.40;;
9473;SDS011;8865;47.636;7.692;2023-04-25T14:33:59;1.47;;;1.33;;
9473;SDS011;8865;47.636;7.692;2023-04-25T14:36:26;3.10;;;1.27;;
9473;SDS011;8865;47.636;7.692;2023-04-25T14:38:54;3.07;;;1.60;;
9473;SDS011;8865;47.636;7.692;2023-04-25T14:41:20;3.73;;;1.77;;
9473;SDS011;8865;47.636;7.692;2023-04-25T14:43:46;3.07;;;1.70;;
9473;SDS011;8865;47.636;7.692;2023-04-25T14:46:12;2.93;;;1.37;;
9473;SDS011;8865;47.636;7.692;2023-04-25T14:48:38;3.30;;;1.30;;
9473;SDS011;8865;47.636;7.692;2023-04-25T14:51:05;1.80;;;1.07;;
9473;SDS011;8865;47.636;7.692;2023-04-25T14:53:31;3.37;;;1.07;;
9473;SDS011;8865;47.636;7.692;2023-04-25T14:55:57;1.53;;;1.40;;
9473;SDS011;8865;47.636;7.692;2023-04-25T14:58:23;2.57;;;1.30;;
9473;SDS011;8865;47.636;7.692;2023-04-25T15:00:50;1.70;;;1.10;;
9473;SDS011;8865;47.636;7.692;2023-04-25T15:03:16;12.33;;;8.60;;
9473;SDS011;8865;47.636;7.692;2023-04-25T15:05:43;5.93;;;4.10;;
9473;SDS011;8865;47.636;7.692;2023-04-25T15:08:09;2.10;;;1.70;;
9473;SDS011;8865;47.636;7.692;2023-04-25T15:10:36;1.37;;;0.97;;
9473;SDS011;8865;47.636;7.692;2023-04-25T15:13:02;1.20;;;1.00;;
9473;SDS011;8865;47.636;7.692;2023-04-25T15:15:29;1.87;;;1.20;;
9473;SDS011;8865;47.636;7.692;2023-04-25T15:17:55;1.43;;;1.10;;
9473;SDS011;8865;47.636;7.692;2023-04-25T15:20:22;1.30;;;1.20;;